createdAt,value
2023-05-13T00:01:50.143Z,101059.50
2023-05-13T00:04:19.653Z,101059.31
2023-05-13T00:06:47.770Z,101060.12
2023-05-13T00:09:16.117Z,101062.80
2023-05-13T00:11:44.602Z,101062.42
2023-05-13T00:14:13.370Z,101062.10
2023-05-13T00:16:41.567Z,101064.48
2023-05-13T00:19:10.048Z,101063.39
2023-05-13T00:21:39.018Z,101062.42
2023-05-13T00:24:08.213Z,101063.16
2023-05-13T00:26:36.207Z,101065.30
2023-05-13T00:29:04.250Z,101065.55
2023-05-13T00:31:32.413Z,101067.36
2023-05-13T00:34:01.546Z,101066.02
2023-05-13T00:36:29.938Z,101067.83
2023-05-13T00:38:58.399Z,101066.52
2023-05-13T00:41:26.832Z,101063.19
2023-05-13T00:43:58.791Z,101065.39
2023-05-13T00:46:32.127Z,101073.33
2023-05-13T00:49:01.322Z,101076.51
2023-05-13T00:51:29.368Z,101075.41
2023-05-13T00:53:59.441Z,101076.63
2023-05-13T00:56:27.597Z,101073.69
2023-05-13T00:58:56.114Z,101082.83
2023-05-13T01:01:43.782Z,101081.48
2023-05-13T01:04:38.161Z,101084.63
2023-05-13T01:07:25.722Z,101094.04
2023-05-13T01:10:06.603Z,101096.06
2023-05-13T01:12:41.479Z,101098.50
2023-05-13T01:15:14.409Z,101097.61
2023-05-13T01:17:47.982Z,101100.10
2023-05-13T01:20:21.735Z,101092.69
2023-05-13T01:22:50.768Z,101091.41
2023-05-13T01:25:19.639Z,101084.92
2023-05-13T01:27:48.478Z,101087.73
2023-05-13T01:30:18.110Z,101087.73
2023-05-13T01:32:47.092Z,101087.19
2023-05-13T01:35:17.227Z,101086.66
2023-05-13T01:37:48.993Z,101087.01
2023-05-13T01:40:31.041Z,101088.71
2023-05-13T01:43:03.869Z,101089.73
2023-05-13T01:45:33.502Z,101086.84
2023-05-13T01:48:02.311Z,101087.66
2023-05-13T01:50:40.268Z,101090.23
2023-05-13T01:53:09.286Z,101094.67
2023-05-13T01:55:38.506Z,101094.80
2023-05-13T01:58:06.796Z,101095.66
2023-05-13T02:00:34.935Z,101097.58
2023-05-13T02:03:03.374Z,101097.02
2023-05-13T02:05:33.291Z,101103.05
2023-05-13T02:08:02.591Z,101095.89
2023-05-13T02:10:32.829Z,101094.20
2023-05-13T02:13:02.056Z,101092.33
2023-05-13T02:15:30.293Z,101092.20
2023-05-13T02:17:58.406Z,101091.20
2023-05-13T02:20:27.409Z,101094.48
2023-05-13T02:22:56.083Z,101090.21
2023-05-13T02:25:24.169Z,101092.60
2023-05-13T02:27:52.789Z,101096.88
2023-05-13T02:30:22.150Z,101096.91
2023-05-13T02:32:50.416Z,101094.88
2023-05-13T02:35:19.390Z,101091.07
2023-05-13T02:37:47.659Z,101090.55
2023-05-13T02:40:17.156Z,101086.31
2023-05-13T02:42:46.869Z,101093.40
2023-05-13T02:45:15.528Z,101092.89
2023-05-13T02:47:45.079Z,101094.27
2023-05-13T02:50:13.589Z,101091.73
2023-05-13T02:52:42.523Z,101091.36
2023-05-13T02:55:11.887Z,101094.98
2023-05-13T02:57:40.349Z,101091.56
2023-05-13T03:00:09.445Z,101093.48
2023-05-13T03:02:38.089Z,101093.60
2023-05-13T03:05:06.885Z,101095.83
2023-05-13T03:07:35.419Z,101099.88
2023-05-13T03:10:03.728Z,101101.44
2023-05-13T03:12:32.054Z,101101.68
2023-05-13T03:15:00.201Z,101102.30
2023-05-13T03:17:30.985Z,101097.05
2023-05-13T03:19:59.385Z,101098.70
2023-05-13T03:22:27.680Z,101097.13
2023-05-13T03:24:57.369Z,101097.48
2023-05-13T03:27:27.207Z,101100.30
2023-05-13T03:29:55.408Z,101092.84
2023-05-13T03:32:30.711Z,101091.80
2023-05-13T03:35:01.088Z,101091.14
2023-05-13T03:37:30.191Z,101094.20
2023-05-13T03:39:58.626Z,101095.84
2023-05-13T03:42:26.874Z,101092.36
2023-05-13T03:44:59.994Z,101097.54
2023-05-13T03:47:28.367Z,101098.34
2023-05-13T03:49:59.337Z,101099.92
2023-05-13T03:52:27.669Z,101101.50
2023-05-13T03:54:55.788Z,101105.34
2023-05-13T03:57:24.320Z,101105.66
2023-05-13T03:59:52.350Z,101103.67
2023-05-13T04:02:45.658Z,101108.73
2023-05-13T04:05:14.444Z,101107.16
2023-05-13T04:07:42.660Z,101107.83
2023-05-13T04:10:14.571Z,101103.27
2023-05-13T04:12:43.626Z,101104.77
2023-05-13T04:15:12.932Z,101104.25
2023-05-13T04:17:41.944Z,101110.17
2023-05-13T04:20:10.415Z,101109.67
2023-05-13T04:22:38.411Z,101107.42
2023-05-13T04:25:07.440Z,101112.88
2023-05-13T04:27:36.285Z,101106.10
2023-05-13T04:34:37.493Z,101115.25
2023-05-13T04:37:05.988Z,101120.94
2023-05-13T04:39:34.127Z,101119.95
2023-05-13T04:42:02.502Z,101118.98
2023-05-13T04:44:31.322Z,101123.29
2023-05-13T04:46:59.829Z,101129.55
2023-05-13T04:49:28.040Z,101130.48
2023-05-13T04:51:57.491Z,101124.63
2023-05-13T04:54:25.963Z,101124.27
2023-05-13T04:56:54.044Z,101124.85
2023-05-13T04:59:23.561Z,101127.91
2023-05-13T05:01:51.652Z,101130.88
2023-05-13T05:04:20.003Z,101124.31
2023-05-13T05:06:48.815Z,101122.46
2023-05-13T05:09:19.033Z,101118.04
2023-05-13T05:11:50.746Z,101125.55
2023-05-13T05:14:20.922Z,101122.38
2023-05-13T05:16:50.943Z,101121.38
2023-05-13T05:19:24.821Z,101119.23
2023-05-13T05:21:54.732Z,101120.42
2023-05-13T05:24:22.713Z,101116.50
2023-05-13T05:26:50.780Z,101111.79
2023-05-13T05:29:19.000Z,101107.57
2023-05-13T05:31:47.611Z,101110.54
2023-05-13T05:34:16.012Z,101109.91
2023-05-13T05:36:44.719Z,101112.47
2023-05-13T05:39:14.156Z,101113.23
2023-05-13T05:41:42.236Z,101112.86
2023-05-13T05:44:13.527Z,101113.57
2023-05-13T05:46:42.171Z,101112.13
2023-05-13T05:49:10.156Z,101119.61
2023-05-13T05:51:39.060Z,101124.75
2023-05-13T05:54:08.616Z,101126.09
2023-05-13T05:56:37.997Z,101123.45
2023-05-13T05:59:07.586Z,101119.66
2023-05-13T06:01:37.031Z,101117.23
2023-05-13T06:04:05.729Z,101116.77
2023-05-13T06:06:33.987Z,101118.53
2023-05-13T06:09:03.184Z,101114.70
2023-05-13T06:11:31.128Z,101115.24
2023-05-13T06:13:59.189Z,101109.52
2023-05-13T06:16:28.402Z,101103.20
2023-05-13T06:18:56.443Z,101100.98
2023-05-13T06:21:25.219Z,101100.80
2023-05-13T06:23:53.704Z,101097.88
2023-05-13T06:26:22.648Z,101095.95
2023-05-13T06:28:50.944Z,101098.89
2023-05-13T06:31:19.022Z,101104.36
2023-05-13T06:33:47.763Z,101099.15
2023-05-13T06:36:15.847Z,101102.82
2023-05-13T06:38:44.118Z,101101.79
2023-05-13T06:41:12.816Z,101101.49
2023-05-13T06:43:41.592Z,101100.67
2023-05-13T06:46:16.949Z,101101.16
2023-05-13T06:48:45.916Z,101100.39
2023-05-13T06:51:13.959Z,101099.64
2023-05-13T06:53:41.891Z,101096.77
2023-05-13T06:56:09.839Z,101096.45
2023-05-13T06:58:37.710Z,101096.89
2023-05-13T07:01:05.854Z,101096.86
2023-05-13T07:03:34.117Z,101091.59
2023-05-13T07:06:02.080Z,101091.29
2023-05-13T07:08:30.130Z,101090.74
2023-05-13T07:10:58.049Z,101090.01
2023-05-13T07:13:26.535Z,101092.55
2023-05-13T07:15:54.940Z,101090.44
2023-05-13T07:18:23.755Z,101092.20
2023-05-13T07:20:52.609Z,101093.52
2023-05-13T07:23:21.223Z,101092.27
2023-05-13T07:25:51.543Z,101088.55
2023-05-13T07:28:20.864Z,101085.93
2023-05-13T07:30:48.834Z,101086.33
2023-05-13T07:33:16.736Z,101088.45
2023-05-13T07:35:45.126Z,101084.23
2023-05-13T07:38:13.154Z,101087.31
2023-05-13T07:40:41.888Z,101085.91
2023-05-13T07:43:10.838Z,101084.50
2023-05-13T07:45:39.367Z,101082.07
2023-05-13T07:48:07.481Z,101085.18
2023-05-13T07:50:35.488Z,101081.50
2023-05-13T07:53:03.391Z,101077.90
2023-05-13T07:55:31.493Z,101078.77
2023-05-13T07:57:59.426Z,101074.67
2023-05-13T08:00:27.439Z,101072.38
2023-05-13T08:02:56.271Z,101078.13
2023-05-13T08:05:24.585Z,101078.73
2023-05-13T08:07:52.424Z,101075.32
2023-05-13T08:10:20.477Z,101069.82
2023-05-13T08:12:52.323Z,101070.58
2023-05-13T08:15:20.336Z,101061.25
2023-05-13T08:17:49.249Z,101061.15
2023-05-13T08:20:17.095Z,101068.31
2023-05-13T08:22:44.987Z,101059.93
2023-05-13T08:25:13.134Z,101057.82
2023-05-13T08:27:41.157Z,101062.49
2023-05-13T08:30:09.355Z,101062.09
2023-05-13T08:32:37.465Z,101063.08
2023-05-13T08:35:05.695Z,101060.77
2023-05-13T08:37:33.674Z,101064.49
2023-05-13T08:40:01.725Z,101067.46
2023-05-13T08:42:32.508Z,101060.55
2023-05-13T08:45:04.137Z,101060.55
2023-05-13T08:47:46.715Z,101063.13
2023-05-13T08:50:14.894Z,101061.14
2023-05-13T08:52:43.758Z,101058.40
2023-05-13T08:55:12.740Z,101059.80
2023-05-13T08:57:41.597Z,101057.73
2023-05-13T09:00:11.539Z,101052.73
2023-05-13T09:02:39.537Z,101052.52
2023-05-13T09:05:09.378Z,101048.36
2023-05-13T09:07:38.980Z,101051.38
2023-05-13T09:10:07.665Z,101052.31
2023-05-13T09:12:41.926Z,101051.58
2023-05-13T09:15:11.221Z,101056.14
2023-05-13T09:17:43.005Z,101053.64
2023-05-13T09:20:13.258Z,101057.55
2023-05-13T09:22:41.941Z,101047.93
2023-05-13T09:25:12.043Z,101046.20
2023-05-13T09:27:42.088Z,101046.25
2023-05-13T09:30:10.926Z,101051.61
2023-05-13T09:32:39.518Z,101046.58
2023-05-13T09:35:17.550Z,101042.38
2023-05-13T09:37:49.339Z,101039.40
2023-05-13T09:40:18.041Z,101039.85
2023-05-13T09:42:46.576Z,101039.48
2023-05-13T09:45:16.167Z,101031.97
2023-05-13T09:47:44.682Z,101023.09
2023-05-13T09:50:13.783Z,101026.15
2023-05-13T09:52:41.791Z,101026.23
2023-05-13T09:55:10.040Z,101020.36
2023-05-13T09:57:39.435Z,101021.58
2023-05-13T10:00:12.819Z,101018.54
2023-05-13T10:02:46.287Z,101017.11
2023-05-13T10:05:14.756Z,101019.09
2023-05-13T10:07:43.626Z,101020.85
2023-05-13T10:10:12.036Z,101018.02
2023-05-13T10:12:41.442Z,101011.66
2023-05-13T10:15:10.392Z,101005.52
2023-05-13T10:17:39.802Z,101006.64
2023-05-13T10:20:08.145Z,101004.61
2023-05-13T10:22:37.287Z,101005.79
2023-05-13T10:25:05.567Z,101004.48
2023-05-13T10:27:33.922Z,101002.68
2023-05-13T10:30:03.892Z,101002.13
2023-05-13T10:32:32.229Z,100994.57
2023-05-13T10:35:20.279Z,100989.75
2023-05-13T10:37:54.490Z,100982.64
2023-05-13T10:40:29.562Z,100987.33
2023-05-13T10:43:17.311Z,100989.70
2023-05-13T10:45:56.238Z,100991.56
2023-05-13T10:48:24.753Z,100986.33
2023-05-13T10:50:57.332Z,100986.89
2023-05-13T10:53:28.276Z,100986.02
2023-05-13T10:55:56.900Z,100984.09
2023-05-13T10:58:35.272Z,100989.21
2023-05-13T11:04:56.412Z,100989.83
2023-05-13T11:07:25.746Z,100987.23
2023-05-13T11:09:56.155Z,100985.30
2023-05-13T11:12:24.040Z,100985.58
2023-05-13T11:14:55.959Z,100979.95
2023-05-13T11:17:24.662Z,100980.35
2023-05-13T11:19:53.383Z,100986.18
2023-05-13T11:22:22.553Z,100987.16
2023-05-13T11:25:11.154Z,100986.02
2023-05-13T11:27:40.557Z,100985.24
2023-05-13T11:30:21.155Z,100989.02
2023-05-13T11:32:58.456Z,100983.60
2023-05-13T11:35:28.282Z,100981.25
2023-05-13T11:37:59.627Z,100972.66
2023-05-13T11:40:32.199Z,100968.75
2023-05-13T11:43:00.988Z,100973.56
2023-05-13T11:45:29.451Z,100973.85
2023-05-13T11:47:57.950Z,100974.52
2023-05-13T11:50:30.508Z,100971.45
2023-05-13T11:52:59.784Z,100968.46
2023-05-13T11:55:28.966Z,100964.55
2023-05-13T11:57:57.284Z,100965.08
2023-05-13T12:00:26.407Z,100969.00
2023-05-13T12:02:54.736Z,100964.73
2023-05-13T12:05:26.487Z,100957.98
2023-05-13T12:07:58.302Z,100957.03
2023-05-13T12:10:26.455Z,100965.17
2023-05-13T12:12:54.863Z,100964.48
2023-05-13T12:15:23.428Z,100959.17
2023-05-13T12:17:52.582Z,100959.87
2023-05-13T12:20:21.604Z,100961.11
2023-05-13T12:22:50.830Z,100960.16
2023-05-13T12:25:36.926Z,100956.98
2023-05-13T12:28:09.301Z,100957.48
2023-05-13T12:30:38.075Z,100952.73
2023-05-13T12:33:06.440Z,100945.02
2023-05-13T12:35:34.852Z,100946.63
2023-05-13T12:38:04.196Z,100945.70
2023-05-13T12:40:32.659Z,100948.34
2023-05-13T12:43:01.529Z,100957.95
2023-05-13T12:45:30.759Z,100954.24
2023-05-13T12:47:59.325Z,100953.26
2023-05-13T12:50:27.386Z,100957.19
2023-05-13T12:52:55.551Z,100953.20
2023-05-13T12:55:24.314Z,100954.42
2023-05-13T12:58:03.052Z,100946.01
2023-05-13T13:00:31.161Z,100950.15
2023-05-13T13:02:59.207Z,100949.98
2023-05-13T13:05:27.374Z,100942.74
2023-05-13T13:07:55.437Z,100943.29
2023-05-13T13:10:23.300Z,100939.89
2023-05-13T13:12:51.272Z,100943.52
2023-05-13T13:15:19.488Z,100941.16
2023-05-13T13:17:47.680Z,100937.13
2023-05-13T13:20:15.595Z,100933.77
2023-05-13T13:22:43.478Z,100938.31
2023-05-13T13:25:11.871Z,100935.48
2023-05-13T13:27:40.105Z,100930.71
2023-05-13T13:30:08.526Z,100927.77
2023-05-13T13:32:36.499Z,100925.00
2023-05-13T13:35:05.740Z,100930.48
2023-05-13T13:37:35.459Z,100925.25
2023-05-13T13:40:05.046Z,100928.91
2023-05-13T13:42:43.213Z,100926.70
2023-05-13T13:45:13.705Z,100926.38
2023-05-13T13:47:42.073Z,100923.51
2023-05-13T13:50:10.504Z,100927.11
2023-05-13T13:52:38.430Z,100925.95
2023-05-13T13:55:06.745Z,100917.30
2023-05-13T13:57:34.800Z,100914.95
2023-05-13T14:00:02.849Z,100915.73
2023-05-13T14:02:36.885Z,100914.56
2023-05-13T14:05:05.051Z,100915.14
2023-05-13T14:07:33.233Z,100911.85
2023-05-13T14:10:01.601Z,100911.67
2023-05-13T14:12:29.870Z,100911.73
2023-05-13T14:14:58.387Z,100909.13
2023-05-13T14:17:26.375Z,100907.69
2023-05-13T14:19:55.689Z,100906.61
2023-05-13T14:22:24.014Z,100905.76
2023-05-13T14:24:52.714Z,100901.98
2023-05-13T14:27:21.937Z,100904.19
2023-05-13T14:29:50.189Z,100906.93
2023-05-13T14:32:18.140Z,100905.20
2023-05-13T14:34:46.368Z,100901.71
2023-05-13T14:37:14.287Z,100902.81
2023-05-13T14:39:42.459Z,100900.63
2023-05-13T14:42:11.888Z,100901.00
2023-05-13T14:44:41.603Z,100903.27
2023-05-13T14:47:10.624Z,100904.17
2023-05-13T14:49:39.277Z,100901.01
2023-05-13T14:52:07.319Z,100901.29
2023-05-13T14:54:36.930Z,100905.39
2023-05-13T14:57:06.070Z,100911.30
2023-05-13T14:59:34.456Z,100909.27
2023-05-13T15:02:02.950Z,100904.80
2023-05-13T15:04:30.986Z,100909.27
2023-05-13T15:06:59.530Z,100907.41
2023-05-13T15:09:27.656Z,100908.14
2023-05-13T15:11:55.657Z,100909.51
2023-05-13T15:14:26.108Z,100904.55
2023-05-13T15:16:54.349Z,100907.63
2023-05-13T15:19:22.701Z,100908.40
2023-05-13T15:21:51.648Z,100910.80
2023-05-13T15:24:19.803Z,100912.77
2023-05-13T15:26:48.552Z,100914.09
2023-05-13T15:29:16.942Z,100908.73
2023-05-13T15:31:45.061Z,100905.88
2023-05-13T15:34:13.040Z,100907.24
2023-05-13T15:36:41.134Z,100905.73
2023-05-13T15:39:11.289Z,100901.20
2023-05-13T15:41:39.341Z,100902.14
2023-05-13T15:44:07.477Z,100898.34
2023-05-13T15:46:35.705Z,100898.34
2023-05-13T15:49:03.841Z,100894.58
2023-05-13T15:51:32.027Z,100895.84
2023-05-13T15:54:03.000Z,100893.07
2023-05-13T15:56:31.032Z,100892.69
2023-05-13T15:58:59.080Z,100894.02
2023-05-13T16:01:27.110Z,100889.67
2023-05-13T16:03:55.037Z,100885.02
2023-05-13T16:06:23.307Z,100887.60
2023-05-13T16:08:51.244Z,100892.15
2023-05-13T16:11:19.230Z,100890.16
2023-05-13T16:13:47.306Z,100886.52
2023-05-13T16:16:15.625Z,100886.21
2023-05-13T16:18:43.633Z,100887.14
2023-05-13T16:21:12.172Z,100885.73
2023-05-13T16:23:40.389Z,100886.63
2023-05-13T16:26:08.314Z,100890.98
2023-05-13T16:28:36.223Z,100896.16
2023-05-13T16:31:04.614Z,100893.86
2023-05-13T16:33:33.878Z,100897.16
2023-05-13T16:36:01.852Z,100893.80
2023-05-13T16:38:30.496Z,100890.16
2023-05-13T16:40:58.481Z,100893.39
2023-05-13T16:43:26.622Z,100892.27
2023-05-13T16:45:54.515Z,100890.23
2023-05-13T16:48:23.618Z,100891.20
2023-05-13T16:50:52.053Z,100891.28
2023-05-13T16:53:22.348Z,100892.42
2023-05-13T16:55:50.518Z,100890.09
2023-05-13T16:58:18.666Z,100890.25
2023-05-13T17:00:46.629Z,100886.29
2023-05-13T17:03:15.069Z,100889.75
2023-05-13T17:05:43.813Z,100890.34
2023-05-13T17:08:11.701Z,100894.19
2023-05-13T17:10:39.709Z,100895.49
2023-05-13T17:13:07.659Z,100895.55
2023-05-13T17:15:35.839Z,100898.05
2023-05-13T17:18:03.834Z,100903.80
2023-05-13T17:20:31.800Z,100905.92
2023-05-13T17:22:59.759Z,100910.64
2023-05-13T17:25:27.700Z,100913.09
2023-05-13T17:27:55.541Z,100918.80
2023-05-13T17:30:23.846Z,100924.92
2023-05-13T17:32:52.007Z,100933.39
2023-05-13T17:35:20.234Z,100934.45
2023-05-13T17:37:48.352Z,100944.42
2023-05-13T17:40:16.400Z,100942.33
2023-05-13T17:42:44.511Z,100933.52
2023-05-13T17:45:12.872Z,100951.83
2023-05-13T17:47:44.090Z,100945.73
2023-05-13T17:50:14.500Z,100944.54
2023-05-13T17:52:42.567Z,100951.66
2023-05-13T17:55:10.727Z,100930.84
2023-05-13T17:57:39.073Z,100926.65
2023-05-13T18:00:07.735Z,100931.51
2023-05-13T18:02:36.536Z,100928.91
2023-05-13T18:05:06.401Z,100933.89
2023-05-13T18:07:34.583Z,100933.95
2023-05-13T18:10:02.993Z,100934.83
2023-05-13T18:12:31.151Z,100932.89
2023-05-13T18:14:59.208Z,100935.38
2023-05-13T18:17:27.797Z,100938.32
2023-05-13T18:19:55.971Z,100936.90
2023-05-13T18:22:24.048Z,100939.34
2023-05-13T18:24:52.285Z,100938.93
2023-05-13T18:27:21.713Z,100940.71
2023-05-13T18:29:50.419Z,100942.14
2023-05-13T18:32:18.453Z,100941.33
2023-05-13T18:34:46.545Z,100944.48
2023-05-13T18:37:15.262Z,100943.14
2023-05-13T18:39:45.925Z,100943.48
2023-05-13T18:42:13.906Z,100947.25
2023-05-13T18:44:42.172Z,100944.88
2023-05-13T18:47:11.477Z,100945.42
2023-05-13T18:49:39.501Z,100950.16
2023-05-13T18:52:07.537Z,100949.84
2023-05-13T18:54:36.219Z,100951.46
2023-05-13T18:57:04.608Z,100953.56
2023-05-13T18:59:33.313Z,100950.05
2023-05-13T19:04:38.726Z,100954.25
2023-05-13T19:07:06.937Z,100952.90
2023-05-13T19:09:35.994Z,100954.80
2023-05-13T19:12:04.214Z,100955.65
2023-05-13T19:14:32.900Z,100956.98
2023-05-13T19:17:01.436Z,100955.34
2023-05-13T19:19:29.434Z,100955.27
2023-05-13T19:21:57.460Z,100959.87
2023-05-13T19:24:25.492Z,100955.93
2023-05-13T19:26:53.634Z,100958.27
2023-05-13T19:29:22.668Z,100962.83
2023-05-13T19:31:51.090Z,100962.35
2023-05-13T19:34:19.266Z,100964.45
2023-05-13T19:36:47.394Z,100966.52
2023-05-13T19:39:15.573Z,100967.38
2023-05-13T19:41:50.705Z,100968.05
2023-05-13T19:44:18.776Z,100975.68
2023-05-13T19:46:47.237Z,100975.64
2023-05-13T19:49:15.836Z,100975.60
2023-05-13T19:51:44.280Z,100979.38
2023-05-13T19:54:13.666Z,100979.48
2023-05-13T19:56:41.894Z,100979.94
2023-05-13T19:59:11.401Z,100983.02
2023-05-13T20:01:40.142Z,100983.30
2023-05-13T20:04:09.168Z,100980.77
2023-05-13T20:06:37.180Z,100981.90
2023-05-13T20:09:06.599Z,100980.77
2023-05-13T20:11:36.387Z,100985.90
2023-05-13T20:14:04.645Z,100982.86
2023-05-13T20:16:32.898Z,100982.77
2023-05-13T20:19:00.988Z,100984.42
2023-05-13T20:21:29.274Z,100985.36
2023-05-13T20:23:57.406Z,100987.89
2023-05-13T20:26:25.921Z,100985.34
2023-05-13T20:28:54.050Z,100985.44
2023-05-13T20:31:24.014Z,100983.98
2023-05-13T20:33:52.181Z,100981.31
2023-05-13T20:36:20.167Z,100985.36
2023-05-13T20:39:13.964Z,100985.61
2023-05-13T20:41:42.068Z,100985.50
2023-05-13T20:44:12.663Z,100985.05
2023-05-13T20:46:40.864Z,100985.48
2023-05-13T20:49:09.191Z,100989.66
2023-05-13T20:51:37.859Z,100987.95
2023-05-13T20:54:08.991Z,100989.71
2023-05-13T20:56:37.100Z,100984.08
2023-05-13T20:59:05.989Z,100983.81
2023-05-13T21:01:35.434Z,100977.14
2023-05-13T21:04:06.135Z,100977.23
2023-05-13T21:06:34.196Z,100978.50
2023-05-13T21:09:02.181Z,100985.30
2023-05-13T21:11:30.475Z,100986.08
2023-05-13T21:13:58.644Z,100985.81
2023-05-13T21:16:26.805Z,100986.81
2023-05-13T21:18:54.831Z,100986.35
2023-05-13T21:21:23.375Z,100984.30
2023-05-13T21:23:51.418Z,100984.31
2023-05-13T21:26:21.945Z,100985.08
2023-05-13T21:28:50.029Z,100989.44
2023-05-13T21:31:17.982Z,100985.17
2023-05-13T21:33:46.367Z,100985.94
2023-05-13T21:36:15.477Z,100987.04
2023-05-13T21:38:43.453Z,100988.13
2023-05-13T21:41:13.133Z,100989.65
2023-05-13T21:43:42.334Z,100990.27
2023-05-13T21:46:10.257Z,100987.29
2023-05-13T21:48:40.457Z,100983.95
2023-05-13T21:51:08.824Z,100981.55
2023-05-13T21:53:38.203Z,100980.91
2023-05-13T21:56:07.402Z,100984.31
2023-05-13T21:58:36.574Z,100982.00
2023-05-13T22:01:04.841Z,100977.86
2023-05-13T22:03:32.870Z,100978.30
2023-05-13T22:06:02.503Z,100981.12
2023-05-13T22:08:30.538Z,100982.59
2023-05-13T22:11:01.408Z,100982.47
2023-05-13T22:13:29.510Z,100981.52
2023-05-13T22:15:57.928Z,100981.45
2023-05-13T22:18:26.133Z,100977.39
2023-05-13T22:20:55.815Z,100975.92
2023-05-13T22:23:24.186Z,100974.30
2023-05-13T22:25:52.323Z,100980.23
2023-05-13T22:28:22.717Z,100980.74
2023-05-13T22:30:55.412Z,100980.66
2023-05-13T22:33:24.714Z,100979.19
2023-05-13T22:35:52.831Z,100981.89
2023-05-13T22:38:20.845Z,100983.50
2023-05-13T22:40:52.152Z,100982.86
2023-05-13T22:43:20.413Z,100984.80
2023-05-13T22:45:48.422Z,100981.55
2023-05-13T22:48:18.416Z,100979.73
2023-05-13T22:50:46.483Z,100980.36
2023-05-13T22:53:14.783Z,100983.22
2023-05-13T22:55:42.841Z,100982.77
2023-05-13T22:58:12.048Z,100978.20
2023-05-13T23:00:40.973Z,100985.75
2023-05-13T23:03:09.044Z,100981.55
2023-05-13T23:05:37.143Z,100980.73
2023-05-13T23:08:05.830Z,100981.40
2023-05-13T23:10:33.887Z,100982.00
2023-05-13T23:13:05.929Z,100983.66
2023-05-13T23:15:36.832Z,100984.80
2023-05-13T23:18:05.915Z,100981.80
2023-05-13T23:20:34.180Z,100986.95
2023-05-13T23:23:02.384Z,100986.74
2023-05-13T23:25:30.390Z,100990.37
2023-05-13T23:27:58.436Z,100990.48
2023-05-13T23:30:27.406Z,100987.69
2023-05-13T23:32:55.476Z,100985.73
2023-05-13T23:35:24.351Z,100985.30
2023-05-13T23:37:53.058Z,100981.25
2023-05-13T23:40:21.762Z,100978.23
2023-05-13T23:42:50.020Z,100975.14
2023-05-13T23:45:18.102Z,100973.86
2023-05-13T23:47:46.291Z,100974.98
2023-05-13T23:50:41.600Z,100979.20
2023-05-13T23:53:09.858Z,100977.23
2023-05-13T23:55:38.112Z,100975.14
2023-05-13T23:58:06.316Z,100974.17
